DOC500 LPLA-LPFL

Flight info

Callsign DOC500
Flight time 0h 46m
Altitude 24000
Route LM H124 FRS
Aircraft B350/L-SDFGIRXYZ/LB1

Departure

Time 2026-04-28 21:30
Airport Lajes Airport (LPLA)

Arrival

Time 2026-04-28 22:17
Airport Flores Airport (LPFL)
Time Latitude Longitude Altitude Speed Heading
2026-04-28 21:12 38.75669 -27.08874 175 ft 0 kts 141°
2026-04-28 21:28 38.75667 -27.08872 175 ft 2 kts 133°
2026-04-28 21:28 38.75670 -27.08845 175 ft 7 kts 36°
2026-04-28 21:29 38.75731 -27.08882 175 ft 12 kts 326°
2026-04-28 21:29 38.75815 -27.08905 175 ft 13 kts
2026-04-28 21:29 38.75901 -27.08893 176 ft 12 kts
2026-04-28 21:29 38.75983 -27.08892 178 ft 15 kts 335°
2026-04-28 21:30 38.76226 -27.09126 176 ft 81 kts 322°
2026-04-28 21:30 38.76830 -27.09758 180 ft 138 kts 318°
2026-04-28 21:30 38.77662 -27.10576 475 ft 159 kts 321°
2026-04-28 21:30 38.78584 -27.11394 1020 ft 162 kts 321°
2026-04-28 21:31 38.79525 -27.12248 1459 ft 173 kts 320°
2026-04-28 21:31 38.80543 -27.13138 1843 ft 185 kts 321°
2026-04-28 21:31 38.81635 -27.14080 2246 ft 192 kts 322°
2026-04-28 21:31 38.82743 -27.15031 2794 ft 190 kts 322°
2026-04-28 21:32 38.83828 -27.15960 3381 ft 187 kts 322°
2026-04-28 21:32 38.84916 -27.16887 3930 ft 188 kts 322°
2026-04-28 21:32 38.86014 -27.17826 4507 ft 190 kts 322°
2026-04-28 21:32 38.87118 -27.18783 5054 ft 192 kts 319°
2026-04-28 21:33 38.87857 -27.20129 5588 ft 183 kts 276°
2026-04-28 21:33 38.87810 -27.21724 6127 ft 180 kts 261°
2026-04-28 21:33 38.88001 -27.23351 6665 ft 190 kts 281°
2026-04-28 21:33 38.88418 -27.24966 7215 ft 191 kts 281°
2026-04-28 21:34 38.88787 -27.26576 7766 ft 191 kts 278°
2026-04-28 21:34 38.89113 -27.28229 8327 ft 191 kts 276°
2026-04-28 21:34 38.89410 -27.29892 8900 ft 191 kts 274°
2026-04-28 21:34 38.89692 -27.31562 9468 ft 192 kts 273°
2026-04-28 21:35 38.89968 -27.33250 10031 ft 194 kts 272°
2026-04-28 21:35 38.90245 -27.34957 10523 ft 196 kts 272°
2026-04-28 21:35 38.90524 -27.36681 11027 ft 198 kts 272°
2026-04-28 21:35 38.90800 -27.38403 11545 ft 200 kts 272°
2026-04-28 21:36 38.91080 -27.40164 12062 ft 203 kts 271°
2026-04-28 21:36 38.91365 -27.41950 12587 ft 205 kts 271°
2026-04-28 21:36 38.91653 -27.43757 13102 ft 208 kts 271°
2026-04-28 21:36 38.91944 -27.45582 13625 ft 210 kts 271°
2026-04-28 21:37 38.92239 -27.47436 14104 ft 212 kts 271°
2026-04-28 21:37 38.92537 -27.49299 14587 ft 213 kts 271°
2026-04-28 21:37 38.92835 -27.51170 15068 ft 214 kts 271°
2026-04-28 21:37 38.93135 -27.53054 15538 ft 215 kts 271°
2026-04-28 21:38 38.93433 -27.54924 16007 ft 216 kts 271°
2026-04-28 21:38 38.93733 -27.56821 16471 ft 218 kts 271°
2026-04-28 21:38 38.94036 -27.58735 16940 ft 219 kts 271°
2026-04-28 21:38 38.94340 -27.60662 17443 ft 221 kts 271°
2026-04-28 21:39 38.94648 -27.62607 17948 ft 223 kts 270°
2026-04-28 21:39 38.94957 -27.64567 18408 ft 224 kts 270°
2026-04-28 21:39 38.95267 -27.66532 18836 ft 225 kts 270°
2026-04-28 21:39 38.95578 -27.68508 19249 ft 227 kts 270°
2026-04-28 21:40 38.95886 -27.70473 19663 ft 228 kts 270°
2026-04-28 21:40 38.96200 -27.72474 20075 ft 229 kts 270°
2026-04-28 21:40 38.96516 -27.74488 20487 ft 230 kts 270°
2026-04-28 21:40 38.96833 -27.76516 20887 ft 231 kts 270°
2026-04-28 21:41 38.97152 -27.78554 21280 ft 233 kts 270°
2026-04-28 21:41 38.97468 -27.80575 21665 ft 234 kts 270°
2026-04-28 21:41 38.97789 -27.82626 22055 ft 235 kts 270°
2026-04-28 21:41 38.98111 -27.84681 22459 ft 235 kts 270°
2026-04-28 21:42 38.98432 -27.86738 22861 ft 234 kts 270°
2026-04-28 21:42 38.98753 -27.88792 23268 ft 234 kts 270°
2026-04-28 21:42 38.99072 -27.90849 23605 ft 236 kts 269°
2026-04-28 21:42 38.99393 -27.92944 23783 ft 242 kts 269°
2026-04-28 21:43 38.99717 -27.95084 23873 ft 252 kts 270°
2026-04-28 21:43 39.00059 -27.97341 23886 ft 263 kts 270°
2026-04-28 21:43 39.00418 -27.99687 23898 ft 272 kts 270°
2026-04-28 21:43 39.00793 -28.02103 23903 ft 279 kts 271°
2026-04-28 21:44 39.01181 -28.04576 23903 ft 284 kts 271°
2026-04-28 21:44 39.01574 -28.07087 23908 ft 289 kts 271°
2026-04-28 21:44 39.01971 -28.09632 23903 ft 292 kts 271°
2026-04-28 21:44 39.02372 -28.12210 23906 ft 295 kts 271°
2026-04-28 21:45 39.02773 -28.14806 23906 ft 297 kts 271°
2026-04-28 21:45 39.03175 -28.17418 23906 ft 298 kts 271°
2026-04-28 21:45 39.03578 -28.20044 23906 ft 300 kts 271°
2026-04-28 21:45 39.03981 -28.22680 23907 ft 301 kts 270°
2026-04-28 21:46 39.04384 -28.25321 23904 ft 301 kts 270°
2026-04-28 21:46 39.04782 -28.27940 23903 ft 302 kts 270°
2026-04-28 21:46 39.05185 -28.30596 23903 ft 302 kts 270°
2026-04-28 21:46 39.05590 -28.33258 23903 ft 303 kts 270°
2026-04-28 21:47 39.05992 -28.35919 23902 ft 303 kts 270°
2026-04-28 21:47 39.06259 -28.37685 23906 ft 303 kts 270°
2026-04-28 21:47 39.06797 -28.41251 23905 ft 303 kts 270°
2026-04-28 21:47 39.07062 -28.43016 23906 ft 303 kts 270°
2026-04-28 21:48 39.07594 -28.46552 23907 ft 304 kts 270°
2026-04-28 21:48 39.07864 -28.48356 23907 ft 304 kts 270°
2026-04-28 21:48 39.08265 -28.51031 23917 ft 305 kts 270°
2026-04-28 21:48 39.08662 -28.53687 23905 ft 305 kts 270°
2026-04-28 21:49 39.09064 -28.56378 23899 ft 305 kts 269°
2026-04-28 21:49 39.09465 -28.59063 23901 ft 305 kts 269°
2026-04-28 21:49 39.09864 -28.61741 23902 ft 305 kts 269°
2026-04-28 21:49 39.10263 -28.64421 23912 ft 304 kts 269°
2026-04-28 21:50 39.10661 -28.67104 23901 ft 304 kts 269°
2026-04-28 21:50 39.11057 -28.69779 23906 ft 304 kts 269°
2026-04-28 21:50 39.11449 -28.72433 23900 ft 304 kts 269°
2026-04-28 21:50 39.11844 -28.75110 23903 ft 304 kts 268°
2026-04-28 21:51 39.12240 -28.77790 23904 ft 304 kts 268°
2026-04-28 21:51 39.12634 -28.80472 23901 ft 304 kts 268°
2026-04-28 21:51 39.13028 -28.83150 23902 ft 304 kts 268°
2026-04-28 21:51 39.13421 -28.85832 23904 ft 304 kts 268°
2026-04-28 21:52 39.13808 -28.88475 23901 ft 304 kts 268°
2026-04-28 21:52 39.14200 -28.91155 23902 ft 304 kts 268°
2026-04-28 21:52 39.14591 -28.93835 23899 ft 304 kts 268°
2026-04-28 21:52 39.14982 -28.96521 23898 ft 304 kts 268°
2026-04-28 21:53 39.15373 -28.99207 23900 ft 304 kts 268°
2026-04-28 21:53 39.15762 -29.01886 23897 ft 304 kts 268°
2026-04-28 21:53 39.16151 -29.04569 23897 ft 305 kts 267°
2026-04-28 21:53 39.16541 -29.07261 23894 ft 304 kts 267°
2026-04-28 21:54 39.16924 -29.09915 23896 ft 304 kts 267°
2026-04-28 21:54 39.17309 -29.12596 23895 ft 305 kts 267°
2026-04-28 21:54 39.17695 -29.15288 23897 ft 305 kts 267°
2026-04-28 21:54 39.18085 -29.17998 23895 ft 305 kts 266°
2026-04-28 21:55 39.18467 -29.20658 23899 ft 305 kts 266°
2026-04-28 21:55 39.18854 -29.23357 23897 ft 306 kts 266°
2026-04-28 21:55 39.19240 -29.26055 23893 ft 306 kts 266°
2026-04-28 21:55 39.19626 -29.28754 23894 ft 306 kts 266°
2026-04-28 21:56 39.20011 -29.31456 23893 ft 306 kts 266°
2026-04-28 21:56 39.20396 -29.34161 23892 ft 307 kts 266°
2026-04-28 21:56 39.20781 -29.36868 23892 ft 307 kts 266°
2026-04-28 21:56 39.21161 -29.39550 23889 ft 307 kts 266°
2026-04-28 21:57 39.21545 -29.42266 23891 ft 307 kts 266°
2026-04-28 21:57 39.21929 -29.44981 23892 ft 308 kts 266°
2026-04-28 21:57 39.22312 -29.47698 23892 ft 308 kts 265°
2026-04-28 21:57 39.22695 -29.50418 23887 ft 308 kts 265°
2026-04-28 21:58 39.23077 -29.53140 23890 ft 308 kts 265°
2026-04-28 21:58 39.23460 -29.55864 23888 ft 309 kts 265°
2026-04-28 21:58 39.23836 -29.58554 23888 ft 309 kts 265°
2026-04-28 21:58 39.24219 -29.61291 23890 ft 309 kts 265°
2026-04-28 21:59 39.24599 -29.64022 23833 ft 311 kts 265°
2026-04-28 21:59 39.24982 -29.66808 23614 ft 319 kts 265°
2026-04-28 21:59 39.25375 -29.69677 23167 ft 331 kts 266°
2026-04-28 22:00 39.26226 -29.75631 22195 ft 339 kts 268°
2026-04-28 22:00 39.26656 -29.78622 21724 ft 339 kts 268°
2026-04-28 22:00 39.27080 -29.81617 21259 ft 340 kts 268°
2026-04-28 22:00 39.27501 -29.84626 20802 ft 340 kts 269°
2026-04-28 22:01 39.27914 -29.87594 20359 ft 340 kts 269°
2026-04-28 22:01 39.28322 -29.90608 19916 ft 341 kts 269°
2026-04-28 22:01 39.28725 -29.93629 19478 ft 341 kts 270°
2026-04-28 22:01 39.29128 -29.96653 19043 ft 341 kts 270°
2026-04-28 22:02 39.29533 -29.99678 18613 ft 342 kts 271°
2026-04-28 22:02 39.29942 -30.02711 18192 ft 341 kts 271°
2026-04-28 22:02 39.30350 -30.05724 17703 ft 340 kts 272°
2026-04-28 22:02 39.30752 -30.08684 17225 ft 336 kts 272°
2026-04-28 22:03 39.31153 -30.11638 16752 ft 331 kts 272°
2026-04-28 22:03 39.31548 -30.14561 16281 ft 328 kts 272°
2026-04-28 22:03 39.31938 -30.17455 15817 ft 326 kts 272°
2026-04-28 22:03 39.32187 -30.20329 15364 ft 317 kts 264°
2026-04-28 22:04 39.32051 -30.23128 14909 ft 308 kts 254°
2026-04-28 22:04 39.31597 -30.25766 14474 ft 302 kts 249°
2026-04-28 22:04 39.31025 -30.28361 14039 ft 298 kts 248°
2026-04-28 22:04 39.30424 -30.30893 13591 ft 292 kts 248°
2026-04-28 22:05 39.30095 -30.33487 13121 ft 296 kts 263°
2026-04-28 22:05 39.30311 -30.36141 12646 ft 300 kts 278°
2026-04-28 22:05 39.30937 -30.38726 12171 ft 300 kts 283°
2026-04-28 22:05 39.31474 -30.41294 11702 ft 294 kts 276°
2026-04-28 22:06 39.31803 -30.43879 11247 ft 290 kts 274°
2026-04-28 22:06 39.32090 -30.46444 10794 ft 287 kts 274°
2026-04-28 22:06 39.32370 -30.48962 10358 ft 285 kts 275°
2026-04-28 22:06 39.32648 -30.51489 9919 ft 283 kts 274°
2026-04-28 22:07 39.32919 -30.53997 9447 ft 281 kts 275°
2026-04-28 22:07 39.33226 -30.56487 8967 ft 280 kts 276°
2026-04-28 22:07 39.33540 -30.58960 8497 ft 278 kts 276°
2026-04-28 22:07 39.33859 -30.61419 8033 ft 277 kts 277°
2026-04-28 22:08 39.34257 -30.63848 7580 ft 277 kts 285°
2026-04-28 22:08 39.35009 -30.66136 7240 ft 274 kts 291°
2026-04-28 22:08 39.35795 -30.68381 6996 ft 273 kts 290°
2026-04-28 22:08 39.36553 -30.70626 6743 ft 272 kts 290°
2026-04-28 22:09 39.37306 -30.72869 6498 ft 271 kts 290°
2026-04-28 22:09 39.38041 -30.75085 6209 ft 272 kts 290°
2026-04-28 22:09 39.38786 -30.77331 5864 ft 273 kts 290°
2026-04-28 22:09 39.39532 -30.79600 5478 ft 275 kts 290°
2026-04-28 22:10 39.40284 -30.81872 5093 ft 272 kts 291°
2026-04-28 22:10 39.41022 -30.84114 4719 ft 268 kts 291°
2026-04-28 22:10 39.41748 -30.86325 4325 ft 265 kts 291°
2026-04-28 22:10 39.42465 -30.88510 3939 ft 263 kts 291°
2026-04-28 22:11 39.43178 -30.90684 3551 ft 261 kts 291°
2026-04-28 22:11 39.43884 -30.92841 3177 ft 256 kts 291°
2026-04-28 22:11 39.44542 -30.94847 2795 ft 235 kts 290°
2026-04-28 22:11 39.45194 -30.96716 2405 ft 221 kts 299°
2026-04-28 22:12 39.46032 -30.98328 2057 ft 210 kts 303°
2026-04-28 22:12 39.46869 -30.99802 1800 ft 197 kts 305°
2026-04-28 22:12 39.47681 -31.01177 1540 ft 188 kts 305°
2026-04-28 22:12 39.48476 -31.02488 1308 ft 182 kts 305°
2026-04-28 22:13 39.49262 -31.03771 1196 ft 180 kts 306°
2026-04-28 22:13 39.50033 -31.05012 1139 ft 174 kts 305°
2026-04-28 22:13 39.50784 -31.06216 1125 ft 174 kts 306°
2026-04-28 22:13 39.51469 -31.07489 1110 ft 169 kts 285°
2026-04-28 22:14 39.51546 -31.08897 1103 ft 148 kts 266°
2026-04-28 22:14 39.51453 -31.10178 1080 ft 138 kts 261°
2026-04-28 22:14 39.51326 -31.11370 1095 ft 127 kts 261°
2026-04-28 22:14 39.51142 -31.12426 1059 ft 119 kts 244°
2026-04-28 22:15 39.50601 -31.13222 941 ft 119 kts 214°
2026-04-28 22:15 39.49808 -31.13585 731 ft 123 kts 197°
2026-04-28 22:15 39.48966 -31.13741 594 ft 121 kts 191°
2026-04-28 22:15 39.48126 -31.13854 486 ft 119 kts 178°
2026-04-28 22:16 39.47305 -31.13611 358 ft 122 kts 171°
2026-04-28 22:16 39.46519 -31.13400 213 ft 112 kts 170°
2026-04-28 22:16 39.45786 -31.13200 102 ft 96 kts 171°
2026-04-28 22:16 39.45248 -31.13057 111 ft 60 kts 168°
2026-04-28 22:17 39.45051 -31.13003 109 ft 10 kts 169°
2026-04-28 22:17 39.45008 -31.12997 109 ft 4 kts 86°
2026-04-28 22:17 39.45046 -31.12998 110 ft 7 kts 346°
2026-04-28 22:17 39.45114 -31.13017 109 ft 13 kts 348°
2026-04-28 22:18 39.45216 -31.13045 109 ft 17 kts 347°
2026-04-28 22:18 39.45337 -31.13079 112 ft 19 kts 348°
2026-04-28 22:18 39.45482 -31.13119 108 ft 22 kts 348°
2026-04-28 22:18 39.45626 -31.13158 107 ft 20 kts 348°
2026-04-28 22:19 39.45739 -31.13190 104 ft 11 kts 347°
2026-04-28 22:19 39.45807 -31.13196 101 ft 10 kts 44°
2026-04-28 22:19 39.45821 -31.13126 100 ft 4 kts 77°
2026-04-28 22:19 39.45855 -31.13105 98 ft 5 kts
2026-04-28 22:20 39.45867 -31.13081 97 ft 4 kts 144°
2026-04-28 22:20 39.45851 -31.13077 97 ft 0 kts 182°
2026-04-28 22:42 39.45843 -31.13077 98 ft 5 kts 183°
2026-04-28 22:43 39.45819 -31.13135 100 ft 11 kts 259°
2026-04-28 22:43 39.45847 -31.13224 100 ft 16 kts 350°
2026-04-28 22:43 39.45958 -31.13251 98 ft 17 kts 347°
2026-04-28 22:43 39.46060 -31.13279 95 ft 11 kts 348°
2026-04-28 22:44 39.46122 -31.13316 94 ft 9 kts
2026-04-28 22:44 39.46106 -31.13290 99 ft 1 kts 168°
2026-04-28 22:44 39.46105 -31.13290 99 ft 0 kts 167°
2026-04-28 22:45 39.45921 -31.13239 98 ft 75 kts 168°
2026-04-28 22:45 39.45162 -31.13034 195 ft 135 kts 172°
2026-04-28 22:45 39.44188 -31.12768 770 ft 153 kts 171°
2026-04-28 22:46 39.43203 -31.12101 1364 ft 173 kts 131°
2026-04-28 22:46 39.42851 -31.10579 1932 ft 183 kts 91°
2026-04-28 22:46 39.42912 -31.08939 2605 ft 185 kts 89°
2026-04-28 22:46 39.42933 -31.07269 3344 ft 186 kts 93°
2026-04-28 22:47 39.42887 -31.05599 4053 ft 186 kts 95°
2026-04-28 22:47 39.42802 -31.03917 4780 ft 188 kts 97°
2026-04-28 22:47 39.42697 -31.02232 5480 ft 189 kts 97°
2026-04-28 22:47 39.42579 -31.00530 6178 ft 191 kts 98°
2026-04-28 22:48 39.42451 -30.98814 6844 ft 193 kts 98°
2026-04-28 22:48 39.42323 -30.97079 7511 ft 195 kts 98°
2026-04-28 22:48 39.42193 -30.95324 8177 ft 197 kts 98°
2026-04-28 22:48 39.42063 -30.93570 8854 ft 199 kts 99°
2026-04-28 22:49 39.41911 -30.91775 9552 ft 201 kts 102°
2026-04-28 22:49 39.41681 -30.89987 10203 ft 202 kts 104°
2026-04-28 22:49 39.41435 -30.88191 10844 ft 204 kts 104°
2026-04-28 22:49 39.41193 -30.86380 11508 ft 205 kts 105°
2026-04-28 22:50 39.40954 -30.84555 12171 ft 206 kts 105°
2026-04-28 22:50 39.40717 -30.82714 12834 ft 208 kts 105°
2026-04-28 22:50 39.40483 -30.80884 13499 ft 209 kts 106°
2026-04-28 22:50 39.40247 -30.79028 14148 ft 209 kts 107°
2026-04-28 22:51 39.40010 -30.77169 14798 ft 209 kts 107°